Aérodrome :
LOGIN :

S'inscrire | Disclaimer

   EN    FR    IT 

 










Légende :    VFR   VFR Marginal   IFR   IFR Intensif   IFR Très Intensif
Visi : 
Plafond : 
>= 8 km
>= 3000ft
5 à 8 km
1000 à 3000 ft
1500m à 5 km
500 à 1000 ft
800 à 1500m
200 à 500 ft
< 800m
< 200 ft
Symboles :   Orages  Brouillard  Fortes neiges  Fortes précipitations  Vent > 20 kt
SIGMETs :   Divers  Orages  Givrage  Turbulence  Onde Orograph.  Cendres Volcan.






- Altitude de l'aérodrome : 327 ft
- Code IATA : BHX


EGBB - Birmingham

DERNIER METAR :
  • 250550Z 21004KT 8000 SCT005 BKN009 OVC019 05/05 Q1018

METARs EXPIRÉS :
  • 250520Z VRB03KT 9000 BKN004 OVC008 05/05 Q1018
  • 250450Z 20004KT 160V230 4100 BR BKN007 OVC024 05/05 Q1018
  • 250420Z 19006KT 4800 -DZ BKN006 OVC024 05/05 Q1018
  • 250350Z 20004KT 150V230 3400 -DZ BKN008 05/05 Q1018 REDZ
  • 250320Z 20005KT 180V240 2400 DZ OVC024 05/05 Q1018

TAF TAF EGBB
Valide du 25 à 06h jusqu'au 26 à 06h UTC


250504Z 2506/2606 20005KT 3000 -DZ BR BKN008
BECMG 2506/2509 9999 NSW BKN018
PROB30
TEMPO 2509/2511 8000 BKN012
BECMG 2511/2514 6000 BKN010
TEMPO 2513/2604 3000 -DZ BKN006
PROB40
TEMPO 2515/2602 1200 DZ BKN004
ATIS : +44 121 780 0910



MET'MAP, la Météo Aéronautique d'un coup d'oeil ! - Copyright ORBIFLY Décembre 2007 - Disclaimer

ORBIFLY MET'MAP TEAM :

Programmation & Développement : Alexandra Zaïnal
Sur une idée originale de : Baudouin d'Aumeries
Assistance à la programmation : Marc-Olivier Méhu
Soutien technique & logistique : Manuel Goepfert

Contact : metmap@orbifly.com




SOURCES & CREDITS :

   NOAA